sensor_id;sensor_type;location;lat;lon;timestamp;P1;durP1;ratioP1;P2;durP2;ratioP2
9056;SDS011;4563;54.756;9.400;2023-05-17T00:00:12;9.63;;;0.80;;
9056;SDS011;4563;54.756;9.400;2023-05-17T00:02:40;7.97;;;0.97;;
9056;SDS011;4563;54.756;9.400;2023-05-17T00:05:07;10.10;;;1.10;;
9056;SDS011;4563;54.756;9.400;2023-05-17T00:07:35;8.67;;;1.17;;
9056;SDS011;4563;54.756;9.400;2023-05-17T00:10:04;8.20;;;1.30;;
9056;SDS011;4563;54.756;9.400;2023-05-17T00:12:31;8.33;;;1.13;;
9056;SDS011;4563;54.756;9.400;2023-05-17T00:14:58;6.00;;;1.63;;
9056;SDS011;4563;54.756;9.400;2023-05-17T00:17:26;6.83;;;1.27;;
9056;SDS011;4563;54.756;9.400;2023-05-17T00:19:53;10.17;;;1.13;;
9056;SDS011;4563;54.756;9.400;2023-05-17T00:22:20;7.10;;;1.23;;
9056;SDS011;4563;54.756;9.400;2023-05-17T00:24:46;8.97;;;1.60;;
9056;SDS011;4563;54.756;9.400;2023-05-17T00:27:15;6.23;;;1.20;;
9056;SDS011;4563;54.756;9.400;2023-05-17T00:29:42;12.40;;;1.97;;
9056;SDS011;4563;54.756;9.400;2023-05-17T00:32:08;14.37;;;1.50;;
9056;SDS011;4563;54.756;9.400;2023-05-17T00:34:35;13.20;;;1.50;;
9056;SDS011;4563;54.756;9.400;2023-05-17T00:37:02;11.43;;;1.80;;
9056;SDS011;4563;54.756;9.400;2023-05-17T00:39:29;10.90;;;1.93;;
9056;SDS011;4563;54.756;9.400;2023-05-17T00:41:56;12.73;;;1.73;;
9056;SDS011;4563;54.756;9.400;2023-05-17T00:44:24;10.60;;;2.33;;
9056;SDS011;4563;54.756;9.400;2023-05-17T00:46:51;14.83;;;2.43;;
9056;SDS011;4563;54.756;9.400;2023-05-17T00:49:18;10.47;;;1.90;;
9056;SDS011;4563;54.756;9.400;2023-05-17T00:51:45;22.50;;;2.37;;
9056;SDS011;4563;54.756;9.400;2023-05-17T00:54:12;9.50;;;1.50;;
9056;SDS011;4563;54.756;9.400;2023-05-17T00:56:41;15.00;;;2.13;;
9056;SDS011;4563;54.756;9.400;2023-05-17T00:59:08;16.93;;;1.87;;
9056;SDS011;4563;54.756;9.400;2023-05-17T01:01:38;18.23;;;1.97;;
9056;SDS011;4563;54.756;9.400;2023-05-17T01:04:07;9.23;;;1.70;;
9056;SDS011;4563;54.756;9.400;2023-05-17T01:06:34;10.17;;;1.60;;
9056;SDS011;4563;54.756;9.400;2023-05-17T01:09:05;11.77;;;1.77;;
9056;SDS011;4563;54.756;9.400;2023-05-17T01:11:35;11.93;;;1.63;;
9056;SDS011;4563;54.756;9.400;2023-05-17T01:14:12;11.63;;;2.17;;
9056;SDS011;4563;54.756;9.400;2023-05-17T01:16:50;12.33;;;1.63;;
9056;SDS011;4563;54.756;9.400;2023-05-17T01:19:30;15.10;;;1.73;;
9056;SDS011;4563;54.756;9.400;2023-05-17T01:22:14;10.77;;;1.50;;
9056;SDS011;4563;54.756;9.400;2023-05-17T01:24:48;9.67;;;1.63;;
9056;SDS011;4563;54.756;9.400;2023-05-17T01:27:21;16.67;;;2.03;;
9056;SDS011;4563;54.756;9.400;2023-05-17T01:29:51;11.37;;;1.60;;
9056;SDS011;4563;54.756;9.400;2023-05-17T01:32:21;13.40;;;1.60;;
9056;SDS011;4563;54.756;9.400;2023-05-17T01:34:53;11.03;;;2.20;;
9056;SDS011;4563;54.756;9.400;2023-05-17T01:37:20;11.50;;;1.63;;
9056;SDS011;4563;54.756;9.400;2023-05-17T01:39:47;15.37;;;1.63;;
9056;SDS011;4563;54.756;9.400;2023-05-17T01:42:17;12.50;;;2.10;;
9056;SDS011;4563;54.756;9.400;2023-05-17T01:44:49;14.40;;;1.93;;
9056;SDS011;4563;54.756;9.400;2023-05-17T01:47:39;8.10;;;1.70;;
9056;SDS011;4563;54.756;9.400;2023-05-17T01:50:11;10.83;;;1.50;;
9056;SDS011;4563;54.756;9.400;2023-05-17T01:52:44;10.63;;;1.80;;
9056;SDS011;4563;54.756;9.400;2023-05-17T01:55:17;8.37;;;1.43;;
9056;SDS011;4563;54.756;9.400;2023-05-17T01:57:53;8.07;;;1.53;;
9056;SDS011;4563;54.756;9.400;2023-05-17T02:00:21;15.33;;;2.10;;
9056;SDS011;4563;54.756;9.400;2023-05-17T02:02:53;13.93;;;2.07;;
9056;SDS011;4563;54.756;9.400;2023-05-17T02:05:20;11.63;;;1.80;;
9056;SDS011;4563;54.756;9.400;2023-05-17T02:07:47;12.20;;;1.70;;
9056;SDS011;4563;54.756;9.400;2023-05-17T02:10:14;9.40;;;1.53;;
9056;SDS011;4563;54.756;9.400;2023-05-17T02:12:41;8.10;;;1.27;;
9056;SDS011;4563;54.756;9.400;2023-05-17T02:15:10;7.60;;;1.87;;
9056;SDS011;4563;54.756;9.400;2023-05-17T02:17:37;8.27;;;1.23;;
9056;SDS011;4563;54.756;9.400;2023-05-17T02:20:05;8.63;;;1.33;;
9056;SDS011;4563;54.756;9.400;2023-05-17T02:22:36;11.97;;;1.67;;
9056;SDS011;4563;54.756;9.400;2023-05-17T02:25:05;8.50;;;0.97;;
9056;SDS011;4563;54.756;9.400;2023-05-17T02:27:35;8.87;;;1.37;;
9056;SDS011;4563;54.756;9.400;2023-05-17T02:30:05;7.17;;;1.40;;
9056;SDS011;4563;54.756;9.400;2023-05-17T02:32:34;4.67;;;1.00;;
9056;SDS011;4563;54.756;9.400;2023-05-17T02:35:02;6.93;;;1.57;;
9056;SDS011;4563;54.756;9.400;2023-05-17T02:37:30;9.50;;;1.40;;
9056;SDS011;4563;54.756;9.400;2023-05-17T02:39:57;8.93;;;1.47;;
9056;SDS011;4563;54.756;9.400;2023-05-17T02:42:23;7.77;;;1.37;;
9056;SDS011;4563;54.756;9.400;2023-05-17T02:44:50;12.67;;;1.60;;
9056;SDS011;4563;54.756;9.400;2023-05-17T02:47:20;10.07;;;1.20;;
9056;SDS011;4563;54.756;9.400;2023-05-17T02:49:48;6.40;;;1.10;;
9056;SDS011;4563;54.756;9.400;2023-05-17T02:52:15;7.43;;;1.20;;
9056;SDS011;4563;54.756;9.400;2023-05-17T02:54:42;10.87;;;1.30;;
9056;SDS011;4563;54.756;9.400;2023-05-17T02:57:09;8.73;;;1.20;;
9056;SDS011;4563;54.756;9.400;2023-05-17T02:59:36;6.53;;;1.20;;
9056;SDS011;4563;54.756;9.400;2023-05-17T03:02:03;4.43;;;1.00;;
9056;SDS011;4563;54.756;9.400;2023-05-17T03:04:32;7.50;;;1.10;;
9056;SDS011;4563;54.756;9.400;2023-05-17T03:07:01;5.97;;;0.90;;
9056;SDS011;4563;54.756;9.400;2023-05-17T03:09:28;4.87;;;1.10;;
9056;SDS011;4563;54.756;9.400;2023-05-17T03:11:55;11.03;;;1.97;;
9056;SDS011;4563;54.756;9.400;2023-05-17T03:14:22;3.97;;;1.00;;
9056;SDS011;4563;54.756;9.400;2023-05-17T03:16:52;16.20;;;1.30;;
9056;SDS011;4563;54.756;9.400;2023-05-17T03:19:19;5.80;;;1.13;;
9056;SDS011;4563;54.756;9.400;2023-05-17T03:21:46;6.37;;;1.30;;
9056;SDS011;4563;54.756;9.400;2023-05-17T03:24:14;8.63;;;0.90;;
9056;SDS011;4563;54.756;9.400;2023-05-17T03:26:41;5.97;;;0.80;;
9056;SDS011;4563;54.756;9.400;2023-05-17T03:29:07;8.40;;;1.10;;
9056;SDS011;4563;54.756;9.400;2023-05-17T03:31:34;5.53;;;1.10;;
9056;SDS011;4563;54.756;9.400;2023-05-17T03:34:01;11.10;;;1.60;;
9056;SDS011;4563;54.756;9.400;2023-05-17T03:36:28;12.53;;;1.43;;
9056;SDS011;4563;54.756;9.400;2023-05-17T03:38:55;5.20;;;0.77;;
9056;SDS011;4563;54.756;9.400;2023-05-17T03:41:24;6.23;;;0.97;;
9056;SDS011;4563;54.756;9.400;2023-05-17T03:43:51;10.00;;;1.20;;
9056;SDS011;4563;54.756;9.400;2023-05-17T03:46:18;9.27;;;0.93;;
9056;SDS011;4563;54.756;9.400;2023-05-17T03:48:45;14.57;;;1.30;;
9056;SDS011;4563;54.756;9.400;2023-05-17T03:51:11;6.27;;;0.90;;
9056;SDS011;4563;54.756;9.400;2023-05-17T03:53:38;15.63;;;1.27;;
9056;SDS011;4563;54.756;9.400;2023-05-17T03:56:07;9.47;;;1.07;;
9056;SDS011;4563;54.756;9.400;2023-05-17T03:58:35;6.17;;;1.10;;
9056;SDS011;4563;54.756;9.400;2023-05-17T04:01:02;9.43;;;1.20;;
9056;SDS011;4563;54.756;9.400;2023-05-17T04:03:30;4.80;;;0.90;;
9056;SDS011;4563;54.756;9.400;2023-05-17T04:05:59;10.10;;;1.30;;
9056;SDS011;4563;54.756;9.400;2023-05-17T04:08:33;6.43;;;1.23;;
9056;SDS011;4563;54.756;9.400;2023-05-17T04:11:00;11.93;;;1.33;;
9056;SDS011;4563;54.756;9.400;2023-05-17T04:13:35;8.07;;;1.30;;
9056;SDS011;4563;54.756;9.400;2023-05-17T04:16:03;11.43;;;1.10;;
9056;SDS011;4563;54.756;9.400;2023-05-17T04:18:32;10.33;;;1.47;;
9056;SDS011;4563;54.756;9.400;2023-05-17T04:21:00;7.30;;;1.40;;
9056;SDS011;4563;54.756;9.400;2023-05-17T04:23:27;8.77;;;1.17;;
9056;SDS011;4563;54.756;9.400;2023-05-17T04:25:54;5.90;;;1.23;;
9056;SDS011;4563;54.756;9.400;2023-05-17T04:28:22;7.17;;;1.67;;
9056;SDS011;4563;54.756;9.400;2023-05-17T04:30:50;9.37;;;1.60;;
9056;SDS011;4563;54.756;9.400;2023-05-17T04:33:17;7.93;;;1.20;;
9056;SDS011;4563;54.756;9.400;2023-05-17T04:35:44;11.00;;;1.10;;
9056;SDS011;4563;54.756;9.400;2023-05-17T04:38:11;6.73;;;1.20;;
9056;SDS011;4563;54.756;9.400;2023-05-17T04:40:39;10.97;;;1.30;;
9056;SDS011;4563;54.756;9.400;2023-05-17T04:43:06;7.10;;;1.07;;
9056;SDS011;4563;54.756;9.400;2023-05-17T04:45:33;11.77;;;1.50;;
9056;SDS011;4563;54.756;9.400;2023-05-17T04:48:03;8.93;;;1.43;;
9056;SDS011;4563;54.756;9.400;2023-05-17T04:50:31;8.27;;;1.50;;
9056;SDS011;4563;54.756;9.400;2023-05-17T04:52:58;10.23;;;0.93;;
9056;SDS011;4563;54.756;9.400;2023-05-17T04:55:24;9.20;;;1.43;;
9056;SDS011;4563;54.756;9.400;2023-05-17T04:57:51;7.03;;;1.20;;
9056;SDS011;4563;54.756;9.400;2023-05-17T05:00:18;9.40;;;1.20;;
9056;SDS011;4563;54.756;9.400;2023-05-17T05:02:47;7.20;;;1.27;;
9056;SDS011;4563;54.756;9.400;2023-05-17T05:05:16;8.23;;;1.10;;
9056;SDS011;4563;54.756;9.400;2023-05-17T05:07:43;6.73;;;1.00;;
9056;SDS011;4563;54.756;9.400;2023-05-17T05:10:10;7.63;;;1.40;;
9056;SDS011;4563;54.756;9.400;2023-05-17T05:12:37;9.77;;;1.23;;
9056;SDS011;4563;54.756;9.400;2023-05-17T05:15:05;8.73;;;1.60;;
9056;SDS011;4563;54.756;9.400;2023-05-17T05:17:32;10.97;;;1.43;;
9056;SDS011;4563;54.756;9.400;2023-05-17T05:19:59;13.97;;;1.70;;
9056;SDS011;4563;54.756;9.400;2023-05-17T05:22:27;11.93;;;1.43;;
9056;SDS011;4563;54.756;9.400;2023-05-17T05:24:54;11.10;;;1.60;;
9056;SDS011;4563;54.756;9.400;2023-05-17T05:27:21;9.43;;;1.50;;
9056;SDS011;4563;54.756;9.400;2023-05-17T05:29:48;9.13;;;1.27;;
9056;SDS011;4563;54.756;9.400;2023-05-17T05:32:15;9.03;;;1.50;;
9056;SDS011;4563;54.756;9.400;2023-05-17T05:34:41;11.03;;;1.57;;
9056;SDS011;4563;54.756;9.400;2023-05-17T05:37:08;10.70;;;1.20;;
9056;SDS011;4563;54.756;9.400;2023-05-17T05:39:36;14.70;;;1.53;;
9056;SDS011;4563;54.756;9.400;2023-05-17T05:42:04;7.50;;;1.57;;
9056;SDS011;4563;54.756;9.400;2023-05-17T05:44:31;7.90;;;1.30;;
9056;SDS011;4563;54.756;9.400;2023-05-17T05:46:57;7.03;;;1.10;;
9056;SDS011;4563;54.756;9.400;2023-05-17T05:49:24;4.97;;;1.07;;
9056;SDS011;4563;54.756;9.400;2023-05-17T05:51:51;5.20;;;1.37;;
9056;SDS011;4563;54.756;9.400;2023-05-17T05:54:18;8.97;;;1.20;;
9056;SDS011;4563;54.756;9.400;2023-05-17T05:56:47;6.93;;;0.97;;
9056;SDS011;4563;54.756;9.400;2023-05-17T05:59:15;5.83;;;1.13;;
9056;SDS011;4563;54.756;9.400;2023-05-17T06:01:42;10.80;;;1.37;;
9056;SDS011;4563;54.756;9.400;2023-05-17T06:04:08;9.57;;;1.03;;
9056;SDS011;4563;54.756;9.400;2023-05-17T06:06:35;7.67;;;1.00;;
9056;SDS011;4563;54.756;9.400;2023-05-17T06:09:02;7.63;;;1.00;;
9056;SDS011;4563;54.756;9.400;2023-05-17T06:11:31;4.77;;;1.00;;
9056;SDS011;4563;54.756;9.400;2023-05-17T06:13:59;3.20;;;0.83;;
9056;SDS011;4563;54.756;9.400;2023-05-17T06:16:26;3.10;;;0.73;;
9056;SDS011;4563;54.756;9.400;2023-05-17T06:18:52;8.63;;;1.03;;
9056;SDS011;4563;54.756;9.400;2023-05-17T06:21:20;6.13;;;1.30;;
9056;SDS011;4563;54.756;9.400;2023-05-17T06:23:46;6.83;;;0.97;;
9056;SDS011;4563;54.756;9.400;2023-05-17T06:26:13;2.93;;;0.90;;
9056;SDS011;4563;54.756;9.400;2023-05-17T06:28:40;4.63;;;0.70;;
9056;SDS011;4563;54.756;9.400;2023-05-17T06:31:10;6.23;;;1.03;;
9056;SDS011;4563;54.756;9.400;2023-05-17T06:33:38;2.07;;;0.43;;
9056;SDS011;4563;54.756;9.400;2023-05-17T06:36:05;6.50;;;0.87;;
9056;SDS011;4563;54.756;9.400;2023-05-17T06:38:32;12.37;;;1.20;;
9056;SDS011;4563;54.756;9.400;2023-05-17T06:40:59;7.93;;;1.03;;
9056;SDS011;4563;54.756;9.400;2023-05-17T06:43:25;12.03;;;1.53;;
9056;SDS011;4563;54.756;9.400;2023-05-17T06:45:52;6.23;;;0.90;;
9056;SDS011;4563;54.756;9.400;2023-05-17T06:48:20;4.20;;;0.73;;
9056;SDS011;4563;54.756;9.400;2023-05-17T06:50:47;5.80;;;1.07;;
9056;SDS011;4563;54.756;9.400;2023-05-17T06:53:14;7.20;;;0.93;;
9056;SDS011;4563;54.756;9.400;2023-05-17T06:55:42;6.07;;;1.03;;
9056;SDS011;4563;54.756;9.400;2023-05-17T06:58:08;5.87;;;0.90;;
9056;SDS011;4563;54.756;9.400;2023-05-17T07:00:35;4.27;;;0.83;;
9056;SDS011;4563;54.756;9.400;2023-05-17T07:03:02;5.23;;;1.07;;
9056;SDS011;4563;54.756;9.400;2023-05-17T07:05:31;5.90;;;0.90;;
9056;SDS011;4563;54.756;9.400;2023-05-17T07:07:57;8.53;;;0.70;;
9056;SDS011;4563;54.756;9.400;2023-05-17T07:10:24;4.63;;;0.83;;
9056;SDS011;4563;54.756;9.400;2023-05-17T07:12:51;3.70;;;1.00;;
9056;SDS011;4563;54.756;9.400;2023-05-17T07:15:18;3.90;;;0.70;;
9056;SDS011;4563;54.756;9.400;2023-05-17T07:17:48;7.33;;;0.90;;
9056;SDS011;4563;54.756;9.400;2023-05-17T07:20:15;5.67;;;0.60;;
9056;SDS011;4563;54.756;9.400;2023-05-17T07:22:43;6.17;;;0.70;;
9056;SDS011;4563;54.756;9.400;2023-05-17T07:25:12;9.77;;;0.70;;
9056;SDS011;4563;54.756;9.400;2023-05-17T07:27:39;2.50;;;0.57;;
9056;SDS011;4563;54.756;9.400;2023-05-17T07:30:08;1.37;;;0.50;;
9056;SDS011;4563;54.756;9.400;2023-05-17T07:32:35;6.43;;;0.80;;
9056;SDS011;4563;54.756;9.400;2023-05-17T07:35:02;7.47;;;0.73;;
9056;SDS011;4563;54.756;9.400;2023-05-17T07:37:29;3.47;;;0.67;;
9056;SDS011;4563;54.756;9.400;2023-05-17T07:39:57;7.97;;;0.87;;
9056;SDS011;4563;54.756;9.400;2023-05-17T07:42:24;3.80;;;0.90;;
9056;SDS011;4563;54.756;9.400;2023-05-17T07:44:54;5.17;;;0.80;;
9056;SDS011;4563;54.756;9.400;2023-05-17T07:47:23;3.27;;;0.60;;
9056;SDS011;4563;54.756;9.400;2023-05-17T07:49:51;4.87;;;0.50;;
9056;SDS011;4563;54.756;9.400;2023-05-17T07:52:20;1.80;;;0.50;;
9056;SDS011;4563;54.756;9.400;2023-05-17T07:54:47;10.40;;;0.87;;
9056;SDS011;4563;54.756;9.400;2023-05-17T07:57:15;3.07;;;0.77;;
9056;SDS011;4563;54.756;9.400;2023-05-17T07:59:43;5.07;;;0.90;;
9056;SDS011;4563;54.756;9.400;2023-05-17T08:02:10;4.27;;;0.53;;
9056;SDS011;4563;54.756;9.400;2023-05-17T08:04:37;5.13;;;0.90;;
9056;SDS011;4563;54.756;9.400;2023-05-17T08:07:06;9.30;;;0.90;;
9056;SDS011;4563;54.756;9.400;2023-05-17T08:09:32;3.00;;;0.70;;
9056;SDS011;4563;54.756;9.400;2023-05-17T08:11:59;7.07;;;0.80;;
9056;SDS011;4563;54.756;9.400;2023-05-17T08:14:28;5.07;;;0.80;;
9056;SDS011;4563;54.756;9.400;2023-05-17T08:16:58;4.70;;;0.90;;
9056;SDS011;4563;54.756;9.400;2023-05-17T08:19:28;6.07;;;0.93;;
9056;SDS011;4563;54.756;9.400;2023-05-17T08:21:55;4.37;;;0.80;;
9056;SDS011;4563;54.756;9.400;2023-05-17T08:24:22;1.10;;;0.50;;
9056;SDS011;4563;54.756;9.400;2023-05-17T08:26:51;3.60;;;0.90;;
9056;SDS011;4563;54.756;9.400;2023-05-17T08:29:18;5.30;;;0.73;;
9056;SDS011;4563;54.756;9.400;2023-05-17T08:31:46;2.93;;;0.63;;
9056;SDS011;4563;54.756;9.400;2023-05-17T08:34:13;4.83;;;0.70;;
9056;SDS011;4563;54.756;9.400;2023-05-17T08:36:40;4.07;;;0.60;;
9056;SDS011;4563;54.756;9.400;2023-05-17T08:39:08;2.30;;;0.67;;
9056;SDS011;4563;54.756;9.400;2023-05-17T08:41:36;5.57;;;0.60;;
9056;SDS011;4563;54.756;9.400;2023-05-17T08:44:04;2.30;;;0.43;;
9056;SDS011;4563;54.756;9.400;2023-05-17T08:46:32;1.43;;;0.50;;
9056;SDS011;4563;54.756;9.400;2023-05-17T08:49:02;4.00;;;0.50;;
9056;SDS011;4563;54.756;9.400;2023-05-17T08:51:32;2.07;;;0.40;;
9056;SDS011;4563;54.756;9.400;2023-05-17T08:54:01;5.33;;;0.60;;
9056;SDS011;4563;54.756;9.400;2023-05-17T08:56:30;2.63;;;0.40;;
9056;SDS011;4563;54.756;9.400;2023-05-17T08:59:00;3.87;;;0.77;;
9056;SDS011;4563;54.756;9.400;2023-05-17T09:01:30;4.73;;;0.53;;
9056;SDS011;4563;54.756;9.400;2023-05-17T09:03:58;2.50;;;0.40;;
9056;SDS011;4563;54.756;9.400;2023-05-17T09:06:27;2.77;;;0.57;;
9056;SDS011;4563;54.756;9.400;2023-05-17T09:08:57;4.53;;;0.70;;
9056;SDS011;4563;54.756;9.400;2023-05-17T09:11:25;1.93;;;0.53;;
9056;SDS011;4563;54.756;9.400;2023-05-17T09:13:56;4.10;;;0.53;;
9056;SDS011;4563;54.756;9.400;2023-05-17T09:16:24;4.50;;;0.60;;
9056;SDS011;4563;54.756;9.400;2023-05-17T09:18:53;2.90;;;0.60;;
9056;SDS011;4563;54.756;9.400;2023-05-17T09:21:21;2.07;;;0.40;;
9056;SDS011;4563;54.756;9.400;2023-05-17T09:23:49;5.73;;;0.80;;
9056;SDS011;4563;54.756;9.400;2023-05-17T09:26:16;2.97;;;0.60;;
9056;SDS011;4563;54.756;9.400;2023-05-17T09:28:44;2.47;;;0.50;;
9056;SDS011;4563;54.756;9.400;2023-05-17T09:31:12;2.17;;;0.70;;
9056;SDS011;4563;54.756;9.400;2023-05-17T09:33:42;4.47;;;0.60;;
9056;SDS011;4563;54.756;9.400;2023-05-17T09:36:16;4.07;;;0.70;;
9056;SDS011;4563;54.756;9.400;2023-05-17T09:38:52;3.53;;;0.60;;
9056;SDS011;4563;54.756;9.400;2023-05-17T09:41:19;4.77;;;0.60;;
9056;SDS011;4563;54.756;9.400;2023-05-17T09:43:47;6.10;;;0.90;;
9056;SDS011;4563;54.756;9.400;2023-05-17T09:46:14;7.23;;;0.80;;
9056;SDS011;4563;54.756;9.400;2023-05-17T09:48:42;3.00;;;0.67;;
9056;SDS011;4563;54.756;9.400;2023-05-17T09:51:11;7.17;;;0.63;;
9056;SDS011;4563;54.756;9.400;2023-05-17T09:53:38;7.40;;;0.67;;
9056;SDS011;4563;54.756;9.400;2023-05-17T09:56:08;3.30;;;0.60;;
9056;SDS011;4563;54.756;9.400;2023-05-17T09:58:37;6.90;;;0.90;;
9056;SDS011;4563;54.756;9.400;2023-05-17T10:01:05;3.57;;;0.87;;
9056;SDS011;4563;54.756;9.400;2023-05-17T10:03:35;3.00;;;0.67;;
9056;SDS011;4563;54.756;9.400;2023-05-17T10:06:05;2.20;;;0.50;;
9056;SDS011;4563;54.756;9.400;2023-05-17T10:08:34;4.67;;;0.70;;
9056;SDS011;4563;54.756;9.400;2023-05-17T10:11:06;3.33;;;0.73;;
9056;SDS011;4563;54.756;9.400;2023-05-17T10:13:39;5.00;;;0.60;;
9056;SDS011;4563;54.756;9.400;2023-05-17T10:16:10;1.70;;;0.70;;
9056;SDS011;4563;54.756;9.400;2023-05-17T10:18:38;1.57;;;0.83;;
9056;SDS011;4563;54.756;9.400;2023-05-17T10:21:07;4.57;;;1.40;;
9056;SDS011;4563;54.756;9.400;2023-05-17T10:23:34;3.23;;;0.70;;
9056;SDS011;4563;54.756;9.400;2023-05-17T10:26:04;5.77;;;0.80;;
9056;SDS011;4563;54.756;9.400;2023-05-17T10:28:35;6.37;;;1.07;;
9056;SDS011;4563;54.756;9.400;2023-05-17T10:31:03;3.77;;;0.40;;
9056;SDS011;4563;54.756;9.400;2023-05-17T10:33:32;4.03;;;0.80;;
9056;SDS011;4563;54.756;9.400;2023-05-17T10:35:59;2.63;;;0.73;;
9056;SDS011;4563;54.756;9.400;2023-05-17T10:38:30;3.20;;;0.70;;
9056;SDS011;4563;54.756;9.400;2023-05-17T10:40:58;5.30;;;0.80;;
9056;SDS011;4563;54.756;9.400;2023-05-17T10:43:27;2.77;;;0.60;;
9056;SDS011;4563;54.756;9.400;2023-05-17T10:45:57;5.30;;;0.80;;
9056;SDS011;4563;54.756;9.400;2023-05-17T10:48:26;3.80;;;0.50;;
9056;SDS011;4563;54.756;9.400;2023-05-17T10:50:55;3.50;;;0.70;;
9056;SDS011;4563;54.756;9.400;2023-05-17T10:53:21;6.23;;;0.63;;
9056;SDS011;4563;54.756;9.400;2023-05-17T10:55:49;3.60;;;0.80;;
9056;SDS011;4563;54.756;9.400;2023-05-17T10:58:17;4.60;;;0.60;;
9056;SDS011;4563;54.756;9.400;2023-05-17T11:00:47;3.50;;;0.47;;
9056;SDS011;4563;54.756;9.400;2023-05-17T11:03:18;6.10;;;0.93;;
9056;SDS011;4563;54.756;9.400;2023-05-17T11:08:42;4.03;;;0.80;;
9056;SDS011;4563;54.756;9.400;2023-05-17T11:11:12;2.47;;;0.50;;
9056;SDS011;4563;54.756;9.400;2023-05-17T11:13:42;1.07;;;0.50;;
9056;SDS011;4563;54.756;9.400;2023-05-17T11:16:13;1.67;;;0.70;;
9056;SDS011;4563;54.756;9.400;2023-05-17T11:18:46;2.43;;;0.53;;
9056;SDS011;4563;54.756;9.400;2023-05-17T11:21:16;3.70;;;0.43;;
9056;SDS011;4563;54.756;9.400;2023-05-17T11:23:47;2.87;;;0.47;;
9056;SDS011;4563;54.756;9.400;2023-05-17T11:26:20;4.40;;;0.83;;
9056;SDS011;4563;54.756;9.400;2023-05-17T11:28:55;5.57;;;0.87;;
9056;SDS011;4563;54.756;9.400;2023-05-17T11:31:29;5.33;;;0.87;;
9056;SDS011;4563;54.756;9.400;2023-05-17T11:33:58;7.90;;;0.73;;
9056;SDS011;4563;54.756;9.400;2023-05-17T11:36:27;4.43;;;0.80;;
9056;SDS011;4563;54.756;9.400;2023-05-17T11:39:10;5.43;;;0.90;;
9056;SDS011;4563;54.756;9.400;2023-05-17T11:41:38;3.30;;;0.83;;
9056;SDS011;4563;54.756;9.400;2023-05-17T11:44:12;3.13;;;0.60;;
9056;SDS011;4563;54.756;9.400;2023-05-17T11:46:40;4.20;;;0.90;;
9056;SDS011;4563;54.756;9.400;2023-05-17T11:49:10;8.73;;;0.90;;
9056;SDS011;4563;54.756;9.400;2023-05-17T11:51:37;7.43;;;1.27;;
9056;SDS011;4563;54.756;9.400;2023-05-17T11:54:04;2.13;;;0.57;;
9056;SDS011;4563;54.756;9.400;2023-05-17T11:56:32;2.70;;;0.80;;
9056;SDS011;4563;54.756;9.400;2023-05-17T11:59:00;4.27;;;1.03;;
9056;SDS011;4563;54.756;9.400;2023-05-17T12:01:28;2.07;;;0.67;;
9056;SDS011;4563;54.756;9.400;2023-05-17T12:04:06;5.33;;;0.60;;
9056;SDS011;4563;54.756;9.400;2023-05-17T12:06:35;6.77;;;0.87;;
9056;SDS011;4563;54.756;9.400;2023-05-17T12:09:03;5.80;;;0.80;;
9056;SDS011;4563;54.756;9.400;2023-05-17T12:11:34;5.57;;;0.93;;
9056;SDS011;4563;54.756;9.400;2023-05-17T12:14:05;3.77;;;0.57;;
9056;SDS011;4563;54.756;9.400;2023-05-17T12:16:32;2.10;;;0.50;;
9056;SDS011;4563;54.756;9.400;2023-05-17T12:19:01;3.70;;;0.50;;
9056;SDS011;4563;54.756;9.400;2023-05-17T12:21:29;8.13;;;0.90;;
9056;SDS011;4563;54.756;9.400;2023-05-17T12:23:59;4.03;;;0.50;;
9056;SDS011;4563;54.756;9.400;2023-05-17T12:26:26;3.73;;;0.83;;
9056;SDS011;4563;54.756;9.400;2023-05-17T12:28:53;4.07;;;0.83;;
9056;SDS011;4563;54.756;9.400;2023-05-17T12:31:23;14.00;;;0.77;;
9056;SDS011;4563;54.756;9.400;2023-05-17T12:33:52;6.87;;;0.77;;
9056;SDS011;4563;54.756;9.400;2023-05-17T12:36:20;3.70;;;0.70;;
9056;SDS011;4563;54.756;9.400;2023-05-17T12:38:48;7.40;;;0.70;;
9056;SDS011;4563;54.756;9.400;2023-05-17T12:41:19;5.50;;;0.67;;
9056;SDS011;4563;54.756;9.400;2023-05-17T12:43:48;9.00;;;1.00;;
9056;SDS011;4563;54.756;9.400;2023-05-17T12:46:16;6.73;;;0.70;;
9056;SDS011;4563;54.756;9.400;2023-05-17T12:48:45;4.70;;;0.87;;
9056;SDS011;4563;54.756;9.400;2023-05-17T12:51:14;3.73;;;0.70;;
9056;SDS011;4563;54.756;9.400;2023-05-17T12:53:43;4.80;;;0.60;;
9056;SDS011;4563;54.756;9.400;2023-05-17T12:56:15;4.30;;;0.43;;
9056;SDS011;4563;54.756;9.400;2023-05-17T12:58:47;4.83;;;0.70;;
9056;SDS011;4563;54.756;9.400;2023-05-17T13:01:33;4.80;;;0.87;;
9056;SDS011;4563;54.756;9.400;2023-05-17T13:04:02;2.50;;;0.60;;
9056;SDS011;4563;54.756;9.400;2023-05-17T13:06:41;3.47;;;0.77;;
9056;SDS011;4563;54.756;9.400;2023-05-17T13:09:11;1.17;;;0.30;;
9056;SDS011;4563;54.756;9.400;2023-05-17T13:11:39;0.87;;;0.30;;
9056;SDS011;4563;54.756;9.400;2023-05-17T13:14:09;1.73;;;0.40;;
9056;SDS011;4563;54.756;9.400;2023-05-17T13:16:37;5.43;;;0.63;;
9056;SDS011;4563;54.756;9.400;2023-05-17T13:19:10;9.87;;;0.67;;
9056;SDS011;4563;54.756;9.400;2023-05-17T13:21:38;2.33;;;0.50;;
9056;SDS011;4563;54.756;9.400;2023-05-17T13:24:07;8.60;;;0.67;;
9056;SDS011;4563;54.756;9.400;2023-05-17T13:26:35;1.63;;;0.50;;
9056;SDS011;4563;54.756;9.400;2023-05-17T13:29:03;5.07;;;0.70;;
9056;SDS011;4563;54.756;9.400;2023-05-17T13:31:31;3.77;;;0.80;;
9056;SDS011;4563;54.756;9.400;2023-05-17T13:33:59;3.83;;;0.63;;
9056;SDS011;4563;54.756;9.400;2023-05-17T13:36:28;3.13;;;0.70;;
9056;SDS011;4563;54.756;9.400;2023-05-17T13:38:56;2.63;;;0.60;;
9056;SDS011;4563;54.756;9.400;2023-05-17T13:41:26;3.50;;;0.57;;
9056;SDS011;4563;54.756;9.400;2023-05-17T13:43:53;2.17;;;0.60;;
9056;SDS011;4563;54.756;9.400;2023-05-17T13:46:21;5.13;;;0.80;;
9056;SDS011;4563;54.756;9.400;2023-05-17T13:48:53;5.50;;;0.90;;
9056;SDS011;4563;54.756;9.400;2023-05-17T13:51:20;6.07;;;0.90;;
9056;SDS011;4563;54.756;9.400;2023-05-17T13:53:49;2.60;;;0.60;;
9056;SDS011;4563;54.756;9.400;2023-05-17T13:56:19;3.03;;;0.50;;
9056;SDS011;4563;54.756;9.400;2023-05-17T13:58:47;3.83;;;0.63;;
9056;SDS011;4563;54.756;9.400;2023-05-17T14:01:14;4.57;;;0.90;;
9056;SDS011;4563;54.756;9.400;2023-05-17T14:03:43;4.70;;;0.90;;
9056;SDS011;4563;54.756;9.400;2023-05-17T14:06:13;2.80;;;0.60;;
9056;SDS011;4563;54.756;9.400;2023-05-17T14:08:41;4.90;;;1.43;;
9056;SDS011;4563;54.756;9.400;2023-05-17T14:11:10;4.93;;;0.93;;
9056;SDS011;4563;54.756;9.400;2023-05-17T14:13:41;9.30;;;1.53;;
9056;SDS011;4563;54.756;9.400;2023-05-17T14:16:09;4.33;;;0.90;;
9056;SDS011;4563;54.756;9.400;2023-05-17T14:18:38;5.37;;;0.70;;
9056;SDS011;4563;54.756;9.400;2023-05-17T14:21:06;3.63;;;0.93;;
9056;SDS011;4563;54.756;9.400;2023-05-17T14:23:35;6.17;;;0.93;;
9056;SDS011;4563;54.756;9.400;2023-05-17T14:26:02;2.90;;;0.67;;
9056;SDS011;4563;54.756;9.400;2023-05-17T14:28:32;5.17;;;0.83;;
9056;SDS011;4563;54.756;9.400;2023-05-17T14:31:02;5.17;;;0.80;;
9056;SDS011;4563;54.756;9.400;2023-05-17T14:33:29;8.63;;;1.00;;
9056;SDS011;4563;54.756;9.400;2023-05-17T14:35:57;6.27;;;1.03;;
9056;SDS011;4563;54.756;9.400;2023-05-17T14:38:23;7.53;;;0.73;;
9056;SDS011;4563;54.756;9.400;2023-05-17T14:40:51;4.20;;;0.87;;
9056;SDS011;4563;54.756;9.400;2023-05-17T14:43:19;8.37;;;0.90;;
9056;SDS011;4563;54.756;9.400;2023-05-17T14:45:47;3.33;;;0.90;;
9056;SDS011;4563;54.756;9.400;2023-05-17T14:48:14;3.97;;;0.80;;
9056;SDS011;4563;54.756;9.400;2023-05-17T14:50:41;8.07;;;0.73;;
9056;SDS011;4563;54.756;9.400;2023-05-17T14:53:08;7.10;;;0.87;;
9056;SDS011;4563;54.756;9.400;2023-05-17T14:55:35;2.67;;;0.70;;
9056;SDS011;4563;54.756;9.400;2023-05-17T14:58:05;4.90;;;0.80;;
9056;SDS011;4563;54.756;9.400;2023-05-17T15:00:31;2.60;;;0.63;;
9056;SDS011;4563;54.756;9.400;2023-05-17T15:02:59;8.80;;;1.07;;
9056;SDS011;4563;54.756;9.400;2023-05-17T15:05:27;5.33;;;0.80;;
9056;SDS011;4563;54.756;9.400;2023-05-17T15:07:54;7.30;;;1.03;;
9056;SDS011;4563;54.756;9.400;2023-05-17T15:10:21;4.97;;;0.60;;
9056;SDS011;4563;54.756;9.400;2023-05-17T15:12:51;3.57;;;0.73;;
9056;SDS011;4563;54.756;9.400;2023-05-17T15:15:21;5.67;;;1.20;;
9056;SDS011;4563;54.756;9.400;2023-05-17T15:17:49;6.57;;;0.93;;
9056;SDS011;4563;54.756;9.400;2023-05-17T15:20:17;6.73;;;0.97;;
9056;SDS011;4563;54.756;9.400;2023-05-17T15:22:45;3.63;;;0.93;;